Time;durP1;ratioP1;P1;durP2;ratioP2;P2;SDS_P1;SDS_P2;PMS_P1;PMS_P2;Temp;Humidity;BMP_temperature;BMP_pressure;BME280_temperature;BME280_humidity;BME280_pressure;Samples;Min_cycle;Max_cycle;Signal;HPM_P1;HPM_P2
2022/04/12 00:00:34;;;;;;;;;;;6.20;99.90;;;;;;5066151;28;20348;-77
2022/04/12 00:03:01;;;;;;;;;;;6.20;99.90;;;;;;5064791;28;20406;-78
2022/04/12 00:05:27;;;;;;;;;;;6.20;99.90;;;;;;5070412;28;19924;-78
2022/04/12 00:07:54;;;;;;;;;;;6.20;99.90;;;;;;5063670;28;19929;-76
2022/04/12 00:10:20;;;;;;;;;;;6.20;99.90;;;;;;5072083;28;19932;-77
2022/04/12 00:12:47;;;;;;;;;;;6.20;99.90;;;;;;5067320;28;19925;-78
2022/04/12 00:15:13;;;;;;;;;;;6.20;99.90;;;;;;5065506;28;19944;-78
2022/04/12 00:20:25;;;;;;;;;;;6.20;99.90;;;;;;5064108;28;19931;-76
2022/04/12 00:22:52;;;;;;;;;;;6.20;99.90;;;;;;5070330;28;20338;-77
2022/04/12 00:25:22;;;;;;;;;;;6.20;99.90;;;;;;5070787;28;20283;-77
2022/04/12 00:27:48;;;;;;;;;;;6.20;99.90;;;;;;5064366;28;19931;-78
2022/04/12 00:30:15;;;;;;;;;;;6.30;99.90;;;;;;5068079;28;19928;-78
2022/04/12 00:32:41;;;;;;;;;;;6.20;99.90;;;;;;5072116;28;19931;-83
2022/04/12 00:35:08;;;;;;;;;;;6.30;99.90;;;;;;5070583;28;19986;-78
2022/04/12 00:37:34;;;;;;;;;;;6.20;99.90;;;;;;5071728;28;19928;-77
2022/04/12 00:40:01;;;;;;;;;;;6.20;99.90;;;;;;5070922;28;20356;-78
2022/04/12 00:42:27;;;;;;;;;;;6.20;99.90;;;;;;5074636;28;19924;-78
2022/04/12 00:44:54;;;;;;;;;;;6.10;99.90;;;;;;5067898;28;19935;-78
2022/04/12 00:47:20;;;;;;;;;;;6.20;99.90;;;;;;5069057;28;19928;-78
2022/04/12 00:49:47;;;;;;;;;;;6.10;99.90;;;;;;5069506;28;20705;-78
2022/04/12 00:52:14;;;;;;;;;;;6.00;99.90;;;;;;5062130;28;19936;-79
2022/04/12 00:54:40;;;;;;;;;;;6.00;99.90;;;;;;5070141;28;19932;-78
2022/04/12 00:57:07;;;;;;;;;;;6.00;99.90;;;;;;5069471;28;19924;-78
2022/04/12 00:59:34;;;;;;;;;;;6.00;99.90;;;;;;5071355;28;19928;-78
2022/04/12 01:02:00;;;;;;;;;;;5.90;99.90;;;;;;5069933;28;19932;-78
2022/04/12 01:04:27;;;;;;;;;;;5.90;99.90;;;;;;5066782;28;19925;-78
2022/04/12 01:06:54;;;;;;;;;;;5.90;99.90;;;;;;5067577;28;20376;-78
2022/04/12 01:09:21;;;;;;;;;;;5.90;99.90;;;;;;5070259;28;19924;-78
2022/04/12 01:11:48;;;;;;;;;;;5.90;99.90;;;;;;5069194;28;19925;-83
2022/04/12 01:14:15;;;;;;;;;;;5.90;99.90;;;;;;5064188;28;19925;-78
2022/04/12 01:16:41;;;;;;;;;;;5.90;99.90;;;;;;5069651;28;20428;-81
2022/04/12 01:19:08;;;;;;;;;;;5.90;99.90;;;;;;5070294;28;19928;-79
2022/04/12 01:21:34;;;;;;;;;;;5.90;99.90;;;;;;5062560;28;19924;-79
2022/04/12 01:24:01;;;;;;;;;;;5.90;99.90;;;;;;5065464;28;19925;-79
2022/04/12 01:26:28;;;;;;;;;;;5.90;99.90;;;;;;5068601;28;19932;-79
2022/04/12 01:28:54;;;;;;;;;;;5.90;99.90;;;;;;5070322;28;19929;-79
2022/04/12 01:31:21;;;;;;;;;;;5.90;99.90;;;;;;5071492;28;19928;-79
2022/04/12 01:33:47;;;;;;;;;;;5.90;99.90;;;;;;5070022;28;19924;-83
2022/04/12 01:36:14;;;;;;;;;;;5.90;99.90;;;;;;5066724;28;19935;-79
2022/04/12 01:38:40;;;;;;;;;;;5.90;99.90;;;;;;5060199;28;19925;-79
2022/04/12 01:41:07;;;;;;;;;;;5.90;99.90;;;;;;5065670;28;19940;-79
2022/04/12 01:43:33;;;;;;;;;;;5.90;99.90;;;;;;5074521;28;19928;-80
2022/04/12 01:46:00;;;;;;;;;;;5.90;99.90;;;;;;5074158;28;19932;-78
2022/04/12 01:48:27;;;;;;;;;;;5.90;99.90;;;;;;5074545;28;19931;-79
2022/04/12 01:50:53;;;;;;;;;;;5.90;99.90;;;;;;5071863;28;19940;-80
2022/04/12 01:53:20;;;;;;;;;;;5.90;99.90;;;;;;5072121;28;19932;-78
2022/04/12 01:55:46;;;;;;;;;;;5.90;99.90;;;;;;5068714;28;19929;-79
2022/04/12 01:58:13;;;;;;;;;;;5.90;99.90;;;;;;5074142;28;19929;-79
2022/04/12 02:00:40;;;;;;;;;;;5.90;99.90;;;;;;5074151;28;19970;-78
2022/04/12 02:03:06;;;;;;;;;;;5.90;99.90;;;;;;5073180;28;20382;-79
2022/04/12 02:05:33;;;;;;;;;;;5.90;99.90;;;;;;5070391;28;19925;-79
2022/04/12 02:07:59;;;;;;;;;;;5.90;99.90;;;;;;5070218;28;19924;-79
2022/04/12 02:10:26;;;;;;;;;;;5.90;99.90;;;;;;5065966;28;19924;-79
2022/04/12 02:12:53;;;;;;;;;;;5.90;99.90;;;;;;5062840;28;19932;-80
2022/04/12 02:15:19;;;;;;;;;;;5.90;99.90;;;;;;5073335;28;19924;-79
2022/04/12 02:17:46;;;;;;;;;;;5.80;99.90;;;;;;5072725;28;19931;-82
2022/04/12 02:20:12;;;;;;;;;;;5.90;99.90;;;;;;5072068;28;19932;-79
2022/04/12 02:22:39;;;;;;;;;;;5.90;99.90;;;;;;5074767;28;19924;-78
2022/04/12 02:25:05;;;;;;;;;;;5.80;99.90;;;;;;5064207;28;19931;-78
2022/04/12 02:27:32;;;;;;;;;;;5.80;99.90;;;;;;5072060;28;19936;-79
2022/04/12 02:29:58;;;;;;;;;;;5.80;99.90;;;;;;5073110;28;19924;-79
2022/04/12 02:32:25;;;;;;;;;;;5.80;99.90;;;;;;5073654;28;19929;-79
2022/04/12 02:34:51;;;;;;;;;;;5.80;99.90;;;;;;5072695;28;19931;-85
2022/04/12 02:37:18;;;;;;;;;;;5.80;99.90;;;;;;5056734;28;20019;-78
2022/04/12 02:39:45;;;;;;;;;;;5.80;99.90;;;;;;5068000;28;19929;-79
2022/04/12 02:42:11;;;;;;;;;;;5.80;99.90;;;;;;5071093;28;19931;-78
2022/04/12 02:44:38;;;;;;;;;;;5.70;99.90;;;;;;5072914;28;19932;-79
2022/04/12 02:47:04;;;;;;;;;;;5.70;99.90;;;;;;5071897;28;20404;-79
2022/04/12 02:49:31;;;;;;;;;;;5.70;99.90;;;;;;5066070;28;19935;-79
2022/04/12 02:51:57;;;;;;;;;;;5.70;99.90;;;;;;5072709;28;19924;-79
2022/04/12 02:54:24;;;;;;;;;;;5.70;99.90;;;;;;5067238;28;19924;-78
2022/04/12 02:56:50;;;;;;;;;;;5.70;99.90;;;;;;5071698;28;19931;-78
2022/04/12 02:59:17;;;;;;;;;;;5.70;99.90;;;;;;5072158;28;20007;-78
2022/04/12 03:01:43;;;;;;;;;;;5.70;99.90;;;;;;5072602;28;19951;-79
2022/04/12 03:04:10;;;;;;;;;;;5.70;99.90;;;;;;5097275;28;19924;-80
2022/04/12 03:06:37;;;;;;;;;;;5.70;99.90;;;;;;5096850;28;19979;-78
2022/04/12 03:09:03;;;;;;;;;;;5.70;99.90;;;;;;5071930;28;19924;-76
2022/04/12 03:11:30;;;;;;;;;;;5.70;99.90;;;;;;5073802;28;19925;-78
2022/04/12 03:13:56;;;;;;;;;;;5.70;99.90;;;;;;5067375;28;19929;-83
2022/04/12 03:16:23;;;;;;;;;;;5.60;99.90;;;;;;5072735;28;19924;-78
2022/04/12 03:18:49;;;;;;;;;;;5.60;99.90;;;;;;5071985;28;19925;-81
2022/04/12 03:21:16;;;;;;;;;;;5.60;99.90;;;;;;5066287;28;19928;-81
2022/04/12 03:23:43;;;;;;;;;;;5.60;99.90;;;;;;5072466;28;19932;-80
2022/04/12 03:26:09;;;;;;;;;;;5.60;99.90;;;;;;5071823;28;20350;-79
2022/04/12 03:28:36;;;;;;;;;;;5.50;99.90;;;;;;5071285;28;19924;-79
2022/04/12 03:31:02;;;;;;;;;;;5.60;99.90;;;;;;5071161;28;19928;-80
2022/04/12 03:33:29;;;;;;;;;;;5.60;99.90;;;;;;5072601;28;19924;-78
2022/04/12 03:35:55;;;;;;;;;;;5.60;99.90;;;;;;5067524;28;19928;-80
2022/04/12 03:38:22;;;;;;;;;;;5.60;99.90;;;;;;5069439;28;19932;-79
2022/04/12 03:40:48;;;;;;;;;;;5.50;99.90;;;;;;5062765;28;19932;-80
2022/04/12 03:43:15;;;;;;;;;;;5.50;99.90;;;;;;5071087;28;19935;-80
2022/04/12 03:45:42;;;;;;;;;;;5.50;99.90;;;;;;5071640;28;19925;-79
2022/04/12 03:48:08;;;;;;;;;;;5.50;99.90;;;;;;5070550;28;20014;-80
2022/04/12 03:50:35;;;;;;;;;;;5.50;99.90;;;;;;5063379;28;19951;-79
2022/04/12 03:53:02;;;;;;;;;;;5.50;99.90;;;;;;5069902;28;19925;-83
2022/04/12 03:55:32;;;;;;;;;;;5.50;99.90;;;;;;5072015;28;19925;-79
2022/04/12 03:57:58;;;;;;;;;;;5.50;99.90;;;;;;5068427;28;19924;-84
2022/04/12 04:00:25;;;;;;;;;;;5.40;99.90;;;;;;5065528;28;19943;-79
2022/04/12 04:02:51;;;;;;;;;;;5.40;99.90;;;;;;5072160;28;19924;-79
2022/04/12 04:05:18;;;;;;;;;;;5.50;99.90;;;;;;5070808;28;19935;-80
2022/04/12 04:07:44;;;;;;;;;;;5.40;99.90;;;;;;5072227;28;19931;-79
2022/04/12 04:10:11;;;;;;;;;;;5.40;99.90;;;;;;5058351;28;19924;-79
2022/04/12 04:12:38;;;;;;;;;;;5.40;99.90;;;;;;5071680;28;19955;-80
2022/04/12 04:15:06;;;;;;;;;;;5.30;99.90;;;;;;5071033;28;19986;-80
2022/04/12 04:17:32;;;;;;;;;;;5.30;99.90;;;;;;5069980;28;19978;-80
2022/04/12 04:19:59;;;;;;;;;;;5.30;99.90;;;;;;5071742;28;19924;-83
2022/04/12 04:22:25;;;;;;;;;;;5.30;99.90;;;;;;5070812;28;19929;-80
2022/04/12 04:24:52;;;;;;;;;;;5.30;99.90;;;;;;5071499;28;19932;-79
2022/04/12 04:27:19;;;;;;;;;;;5.40;99.90;;;;;;5071876;28;19929;-80
2022/04/12 04:29:46;;;;;;;;;;;5.40;99.90;;;;;;5070519;28;19965;-80
2022/04/12 04:32:12;;;;;;;;;;;5.30;99.90;;;;;;5070080;28;19939;-80
2022/04/12 04:34:39;;;;;;;;;;;5.30;99.90;;;;;;5071180;28;19931;-80
2022/04/12 04:37:07;;;;;;;;;;;5.30;99.90;;;;;;5069872;28;20421;-78
2022/04/12 04:39:33;;;;;;;;;;;5.30;99.90;;;;;;5059550;28;19929;-79
2022/04/12 04:42:00;;;;;;;;;;;5.20;99.90;;;;;;5069411;28;20323;-84
2022/04/12 04:44:27;;;;;;;;;;;5.30;99.90;;;;;;5066594;28;19925;-80
2022/04/12 04:46:54;;;;;;;;;;;5.20;99.90;;;;;;5063626;28;19931;-79
2022/04/12 04:49:20;;;;;;;;;;;5.20;99.90;;;;;;5067312;28;19935;-78
2022/04/12 04:51:47;;;;;;;;;;;5.20;99.90;;;;;;5071120;28;19924;-78
2022/04/12 04:54:14;;;;;;;;;;;5.20;99.90;;;;;;5070575;28;19970;-79
2022/04/12 04:56:40;;;;;;;;;;;5.20;99.90;;;;;;5063015;28;20284;-78
2022/04/12 04:59:07;;;;;;;;;;;5.10;99.90;;;;;;5069764;28;19958;-79
2022/04/12 05:01:34;;;;;;;;;;;5.10;99.90;;;;;;5062722;28;19935;-79
2022/04/12 05:04:00;;;;;;;;;;;5.20;99.90;;;;;;5071028;28;19925;-79
2022/04/12 05:06:27;;;;;;;;;;;5.20;99.90;;;;;;5060556;28;19931;-77
2022/04/12 05:08:53;;;;;;;;;;;5.10;99.90;;;;;;5071557;28;19973;-78
2022/04/12 05:11:20;;;;;;;;;;;5.10;99.90;;;;;;5069235;28;19939;-78
2022/04/12 05:13:46;;;;;;;;;;;5.10;99.90;;;;;;5068242;28;19928;-78
2022/04/12 05:16:13;;;;;;;;;;;5.20;99.90;;;;;;5057078;28;19931;-78
2022/04/12 05:18:39;;;;;;;;;;;5.20;99.90;;;;;;5070275;28;19924;-77
2022/04/12 05:21:06;;;;;;;;;;;5.20;99.90;;;;;;5060198;28;19933;-82
2022/04/12 05:23:32;;;;;;;;;;;5.20;99.90;;;;;;5070797;28;20338;-79
2022/04/12 05:25:59;;;;;;;;;;;5.10;99.90;;;;;;5067516;28;20372;-77
2022/04/12 05:28:25;;;;;;;;;;;5.10;99.90;;;;;;5067167;28;19924;-78
2022/04/12 05:30:52;;;;;;;;;;;5.20;99.90;;;;;;5069466;28;19931;-79
2022/04/12 05:33:19;;;;;;;;;;;5.10;99.90;;;;;;5066122;28;20099;-78
2022/04/12 05:35:45;;;;;;;;;;;5.20;99.90;;;;;;5066495;28;20091;-79
2022/04/12 05:38:12;;;;;;;;;;;5.20;99.90;;;;;;5067028;28;19928;-79
2022/04/12 05:40:38;;;;;;;;;;;5.30;99.90;;;;;;5070160;28;19924;-77
2022/04/12 05:43:06;;;;;;;;;;;5.30;99.90;;;;;;5070459;28;19925;-80
2022/04/12 05:45:33;;;;;;;;;;;5.30;99.90;;;;;;5062119;28;19925;-77
2022/04/12 05:48:00;;;;;;;;;;;5.40;99.90;;;;;;5067737;28;19935;-78
2022/04/12 05:50:26;;;;;;;;;;;5.50;99.90;;;;;;5070923;28;19932;-79
2022/04/12 05:52:53;;;;;;;;;;;5.50;99.90;;;;;;5070826;28;21054;-78
2022/04/12 05:55:20;;;;;;;;;;;5.50;99.90;;;;;;5069875;28;20002;-79
2022/04/12 05:57:46;;;;;;;;;;;5.60;99.90;;;;;;5058578;28;19929;-79
2022/04/12 06:00:13;;;;;;;;;;;5.70;99.90;;;;;;5067891;28;19925;-79
2022/04/12 06:02:39;;;;;;;;;;;5.70;99.90;;;;;;5063379;28;19931;-79
2022/04/12 06:05:06;;;;;;;;;;;5.90;99.90;;;;;;5071528;28;19928;-79
2022/04/12 06:07:33;;;;;;;;;;;6.00;99.90;;;;;;5059008;28;19925;-79
2022/04/12 06:09:59;;;;;;;;;;;6.20;99.90;;;;;;5066849;28;19928;-78
2022/04/12 06:12:26;;;;;;;;;;;6.40;99.90;;;;;;5062425;28;19928;-78
2022/04/12 06:14:52;;;;;;;;;;;6.60;99.90;;;;;;5071322;28;19925;-78
2022/04/12 06:17:19;;;;;;;;;;;6.90;99.90;;;;;;5069352;28;19924;-80
2022/04/12 06:19:45;;;;;;;;;;;7.10;99.90;;;;;;5070167;28;19975;-78
2022/04/12 06:22:12;;;;;;;;;;;7.20;99.90;;;;;;5070064;28;19937;-80
2022/04/12 06:24:39;;;;;;;;;;;7.40;99.90;;;;;;5065364;28;19932;-79
2022/04/12 06:27:06;;;;;;;;;;;7.50;99.90;;;;;;5065152;28;19935;-79
2022/04/12 06:29:33;;;;;;;;;;;7.50;99.90;;;;;;5072252;28;19931;-78
2022/04/12 06:32:00;;;;;;;;;;;7.70;99.90;;;;;;5073836;28;19986;-78
2022/04/12 06:34:26;;;;;;;;;;;7.80;99.90;;;;;;5065046;28;20376;-79
2022/04/12 06:36:53;;;;;;;;;;;7.80;99.90;;;;;;5066093;28;20334;-78
2022/04/12 06:39:19;;;;;;;;;;;7.80;99.90;;;;;;5066064;28;19925;-78
2022/04/12 06:41:46;;;;;;;;;;;7.80;99.90;;;;;;5074531;28;19975;-79
2022/04/12 06:44:13;;;;;;;;;;;7.70;99.90;;;;;;5073029;28;19924;-83
2022/04/12 06:46:39;;;;;;;;;;;7.80;99.90;;;;;;5061103;28;19925;-79
2022/04/12 06:49:06;;;;;;;;;;;7.70;99.90;;;;;;5064926;28;20106;-80
2022/04/12 06:51:32;;;;;;;;;;;7.80;99.90;;;;;;5072607;28;19931;-79
2022/04/12 06:53:59;;;;;;;;;;;7.90;99.90;;;;;;5066796;28;19932;-78
2022/04/12 06:56:27;;;;;;;;;;;7.90;99.90;;;;;;5071774;28;19935;-78
2022/04/12 06:58:54;;;;;;;;;;;7.90;99.90;;;;;;5074056;28;19967;-78
2022/04/12 07:01:21;;;;;;;;;;;8.00;99.90;;;;;;5073081;28;20460;-79
2022/04/12 07:03:47;;;;;;;;;;;8.00;99.90;;;;;;5072857;28;19924;-79
2022/04/12 07:06:14;;;;;;;;;;;7.90;99.90;;;;;;5072726;28;19924;-84
2022/04/12 07:08:40;;;;;;;;;;;7.90;99.90;;;;;;5066587;28;19931;-79
2022/04/12 07:11:07;;;;;;;;;;;8.00;99.90;;;;;;5069730;28;19924;-79
2022/04/12 07:13:34;;;;;;;;;;;7.90;99.90;;;;;;5072559;28;20376;-77
2022/04/12 07:16:02;;;;;;;;;;;8.00;99.90;;;;;;5072500;28;20364;-79
2022/04/12 07:18:29;;;;;;;;;;;8.00;99.90;;;;;;5071266;28;19925;-79
2022/04/12 07:20:55;;;;;;;;;;;8.10;99.90;;;;;;5072839;28;20368;-79
2022/04/12 07:23:22;;;;;;;;;;;8.10;99.90;;;;;;5072983;28;20395;-79
2022/04/12 07:25:49;;;;;;;;;;;8.10;99.90;;;;;;5072623;28;19977;-79
2022/04/12 07:28:15;;;;;;;;;;;8.20;99.90;;;;;;5072013;28;19932;-82
2022/04/12 07:30:42;;;;;;;;;;;8.30;99.90;;;;;;5071478;28;20396;-78
2022/04/12 07:33:09;;;;;;;;;;;8.30;99.90;;;;;;5071487;28;19930;-79
2022/04/12 07:35:35;;;;;;;;;;;8.30;99.90;;;;;;5072221;28;19920;-78
2022/04/12 07:38:02;;;;;;;;;;;8.30;99.90;;;;;;5060432;28;19925;-80
2022/04/12 07:40:28;;;;;;;;;;;8.40;99.90;;;;;;5073017;28;20020;-78
2022/04/12 07:42:55;;;;;;;;;;;8.40;99.90;;;;;;5072141;28;20014;-76
2022/04/12 07:45:21;;;;;;;;;;;8.50;99.90;;;;;;5071758;28;20431;-78
2022/04/12 07:47:48;;;;;;;;;;;8.60;99.90;;;;;;5071992;28;20015;-77
2022/04/12 07:50:15;;;;;;;;;;;8.80;99.90;;;;;;5072195;28;19925;-80
2022/04/12 07:52:41;;;;;;;;;;;9.00;99.90;;;;;;5067661;28;19931;-77
2022/04/12 07:55:08;;;;;;;;;;;9.20;99.90;;;;;;5068820;28;19924;-81
2022/04/12 07:57:35;;;;;;;;;;;9.50;99.90;;;;;;5065819;28;19925;-81
2022/04/12 08:00:01;;;;;;;;;;;9.70;99.90;;;;;;5064449;28;19924;-82
2022/04/12 08:02:28;;;;;;;;;;;9.90;99.90;;;;;;5069797;28;20007;-82
2022/04/12 08:04:55;;;;;;;;;;;10.10;99.90;;;;;;5072133;28;20039;-80
2022/04/12 08:07:21;;;;;;;;;;;10.30;99.90;;;;;;5071072;28;20345;-80
2022/04/12 08:09:48;;;;;;;;;;;10.60;99.90;;;;;;5072357;28;20387;-80
2022/04/12 08:12:14;;;;;;;;;;;10.90;99.90;;;;;;5072026;28;19924;-81
2022/04/12 08:14:41;;;;;;;;;;;10.90;99.90;;;;;;5075938;28;19928;-81
2022/04/12 08:17:08;;;;;;;;;;;11.20;99.90;;;;;;5098560;27;19960;-82
2022/04/12 08:19:34;;;;;;;;;;;11.40;99.90;;;;;;5068368;28;19947;-80
2022/04/12 08:22:01;;;;;;;;;;;11.60;99.90;;;;;;5081809;28;19927;-80
2022/04/12 08:24:28;;;;;;;;;;;11.70;99.90;;;;;;5067789;28;19951;-81
2022/04/12 08:26:55;;;;;;;;;;;11.60;99.90;;;;;;5075152;28;19973;-81
2022/04/12 08:29:22;;;;;;;;;;;11.80;99.90;;;;;;5057481;28;19932;-88
2022/04/12 08:31:48;;;;;;;;;;;12.00;99.90;;;;;;5070131;28;20380;-82
2022/04/12 08:34:15;;;;;;;;;;;12.20;99.90;;;;;;5069478;28;19925;-81
2022/04/12 08:36:41;;;;;;;;;;;12.10;98.70;;;;;;5068910;28;19921;-81
2022/04/12 08:39:08;;;;;;;;;;;12.30;99.00;;;;;;5068589;28;20352;-81
2022/04/12 08:41:34;;;;;;;;;;;12.40;98.70;;;;;;5079306;28;20009;-81
2022/04/12 08:44:01;;;;;;;;;;;12.50;98.90;;;;;;5083117;28;20366;-81
2022/04/12 08:46:28;;;;;;;;;;;12.50;98.10;;;;;;5062340;28;20016;-81
2022/04/12 08:48:54;;;;;;;;;;;12.70;97.40;;;;;;5081776;28;19924;-82
2022/04/12 08:51:21;;;;;;;;;;;12.50;97.00;;;;;;5087716;28;19932;-87
2022/04/12 08:53:48;;;;;;;;;;;12.80;98.10;;;;;;5066084;28;19924;-81
2022/04/12 08:56:14;;;;;;;;;;;12.70;97.60;;;;;;5068709;28;19928;-80
2022/04/12 08:58:41;;;;;;;;;;;12.70;97.00;;;;;;5064471;28;19924;-80
2022/04/12 09:01:08;;;;;;;;;;;12.80;97.10;;;;;;5066143;28;19936;-80
2022/04/12 09:03:34;;;;;;;;;;;12.70;96.90;;;;;;5065029;28;19930;-81
2022/04/12 09:06:01;;;;;;;;;;;13.00;96.50;;;;;;5080892;28;19936;-79
2022/04/12 09:08:27;;;;;;;;;;;13.00;96.80;;;;;;5076223;28;20368;-81
2022/04/12 09:10:54;;;;;;;;;;;13.10;96.20;;;;;;5076360;28;19931;-81
2022/04/12 09:13:20;;;;;;;;;;;13.10;96.10;;;;;;5084242;28;19932;-81
2022/04/12 09:15:47;;;;;;;;;;;13.20;97.00;;;;;;5078261;28;19974;-81
2022/04/12 09:18:14;;;;;;;;;;;13.40;96.40;;;;;;5069295;28;20272;-81
2022/04/12 09:20:40;;;;;;;;;;;13.50;97.20;;;;;;5079589;28;20009;-82
2022/04/12 09:23:07;;;;;;;;;;;13.60;96.40;;;;;;5079804;28;20180;-81
2022/04/12 09:25:34;;;;;;;;;;;13.70;96.40;;;;;;5063826;28;19931;-81
2022/04/12 09:28:00;;;;;;;;;;;13.80;96.30;;;;;;5079614;28;19924;-81
2022/04/12 09:30:27;;;;;;;;;;;13.70;96.40;;;;;;5076922;28;19935;-82
2022/04/12 09:32:54;;;;;;;;;;;13.80;96.80;;;;;;5085243;28;19931;-81
2022/04/12 09:35:21;;;;;;;;;;;13.80;96.30;;;;;;5077876;28;19939;-79
2022/04/12 09:37:47;;;;;;;;;;;13.60;96.00;;;;;;5075892;28;20411;-81
2022/04/12 09:40:14;;;;;;;;;;;13.70;96.30;;;;;;5072257;28;19925;-80
2022/04/12 09:42:40;;;;;;;;;;;13.80;96.10;;;;;;5082024;28;19975;-82
2022/04/12 09:45:07;;;;;;;;;;;13.90;95.90;;;;;;5075865;28;20386;-81
2022/04/12 09:47:34;;;;;;;;;;;13.90;95.70;;;;;;5077944;28;19931;-82
2022/04/12 09:50:00;;;;;;;;;;;13.80;95.40;;;;;;5084881;28;19925;-79
2022/04/12 09:52:27;;;;;;;;;;;13.90;96.50;;;;;;5072883;28;20368;-86
2022/04/12 09:54:54;;;;;;;;;;;13.90;95.80;;;;;;5083506;28;19924;-80
2022/04/12 09:57:20;;;;;;;;;;;14.20;97.30;;;;;;5088309;28;19928;-84
2022/04/12 09:59:47;;;;;;;;;;;14.30;96.00;;;;;;5073230;28;19920;-81
2022/04/12 10:02:13;;;;;;;;;;;14.40;95.90;;;;;;5064013;28;19974;-80
2022/04/12 10:04:40;;;;;;;;;;;14.50;95.90;;;;;;5072886;28;19924;-81
2022/04/12 10:07:07;;;;;;;;;;;14.60;95.40;;;;;;5071754;28;19931;-82
2022/04/12 10:09:33;;;;;;;;;;;14.50;94.90;;;;;;5072659;28;20402;-83
2022/04/12 10:12:00;;;;;;;;;;;14.60;95.30;;;;;;5075232;28;19925;-81
2022/04/12 10:14:26;;;;;;;;;;;14.70;95.50;;;;;;5074307;28;19924;-83
2022/04/12 10:16:53;;;;;;;;;;;14.90;95.60;;;;;;5077634;28;20460;-81
2022/04/12 10:19:20;;;;;;;;;;;14.90;95.10;;;;;;5082217;28;20390;-82
2022/04/12 10:21:46;;;;;;;;;;;15.00;95.60;;;;;;5078812;28;20395;-84
2022/04/12 10:24:13;;;;;;;;;;;15.00;93.90;;;;;;5074389;28;19924;-85
2022/04/12 10:26:40;;;;;;;;;;;15.00;94.60;;;;;;5077504;28;19935;-81
2022/04/12 10:29:06;;;;;;;;;;;15.10;94.90;;;;;;5078289;28;19939;-85
2022/04/12 10:31:33;;;;;;;;;;;15.20;94.60;;;;;;5078922;28;19933;-81
2022/04/12 10:34:00;;;;;;;;;;;15.40;95.10;;;;;;5068895;28;19928;-80
2022/04/12 10:36:26;;;;;;;;;;;15.60;94.20;;;;;;5077287;28;19994;-81
2022/04/12 10:38:53;;;;;;;;;;;15.50;92.80;;;;;;5068916;28;19925;-81
2022/04/12 10:41:19;;;;;;;;;;;15.60;92.60;;;;;;5072333;28;19925;-84
2022/04/12 10:43:46;;;;;;;;;;;15.70;92.70;;;;;;5106534;28;19950;-82
2022/04/12 10:46:13;;;;;;;;;;;15.70;93.30;;;;;;5070154;28;19939;-83
2022/04/12 10:48:39;;;;;;;;;;;15.90;93.70;;;;;;5090192;28;19982;-82
2022/04/12 10:51:06;;;;;;;;;;;15.90;93.10;;;;;;5073441;28;20017;-83
2022/04/12 10:53:32;;;;;;;;;;;16.10;93.30;;;;;;5068327;28;19990;-84
2022/04/12 10:55:59;;;;;;;;;;;16.30;93.40;;;;;;5073573;28;19925;-84
2022/04/12 10:58:25;;;;;;;;;;;16.30;92.60;;;;;;5072513;28;19924;-84
2022/04/12 11:00:52;;;;;;;;;;;16.30;92.20;;;;;;5105970;28;19924;-83
2022/04/12 11:03:19;;;;;;;;;;;16.20;91.10;;;;;;5073300;28;19932;-84
2022/04/12 11:05:46;;;;;;;;;;;16.30;92.50;;;;;;5105904;28;19967;-81
2022/04/12 11:08:13;;;;;;;;;;;16.50;92.20;;;;;;5060148;28;19932;-82
2022/04/12 11:10:39;;;;;;;;;;;16.50;92.00;;;;;;5066066;28;19928;-83
2022/04/12 11:13:06;;;;;;;;;;;16.40;91.20;;;;;;5059543;28;19925;-82
2022/04/12 11:15:33;;;;;;;;;;;16.40;92.10;;;;;;5064787;28;20393;-85
2022/04/12 11:17:59;;;;;;;;;;;16.50;92.70;;;;;;5073258;28;19980;-81
2022/04/12 11:20:26;;;;;;;;;;;16.70;92.50;;;;;;5068242;28;19928;-83
2022/04/12 11:22:52;;;;;;;;;;;16.80;92.40;;;;;;5067842;28;19936;-83
2022/04/12 11:25:20;;;;;;;;;;;16.90;92.00;;;;;;5067516;28;19932;-82
2022/04/12 11:27:47;;;;;;;;;;;16.90;91.10;;;;;;5052845;28;19928;-82
2022/04/12 11:30:14;;;;;;;;;;;17.10;91.70;;;;;;5063652;28;19932;-81
2022/04/12 11:32:41;;;;;;;;;;;17.20;91.70;;;;;;5068580;28;19929;-82
2022/04/12 11:35:07;;;;;;;;;;;17.40;91.40;;;;;;5069432;28;19928;-83
2022/04/12 11:37:34;;;;;;;;;;;17.40;90.40;;;;;;5067347;28;19935;-85
2022/04/12 11:40:00;;;;;;;;;;;17.50;90.10;;;;;;5066434;28;19943;-82
2022/04/12 11:42:27;;;;;;;;;;;17.60;90.70;;;;;;5072712;28;20364;-83
2022/04/12 11:44:53;;;;;;;;;;;17.70;90.40;;;;;;5066494;28;19951;-81
2022/04/12 11:47:20;;;;;;;;;;;17.70;90.30;;;;;;5065021;28;19928;-82
2022/04/12 11:49:46;;;;;;;;;;;17.80;91.50;;;;;;5074562;28;19924;-80
2022/04/12 11:52:13;;;;;;;;;;;17.80;89.00;;;;;;5067502;28;19932;-82
2022/04/12 11:54:39;;;;;;;;;;;17.80;89.00;;;;;;5056993;28;19935;-82
2022/04/12 11:57:06;;;;;;;;;;;17.80;89.60;;;;;;5059675;28;19936;-82
2022/04/12 11:59:33;;;;;;;;;;;17.90;89.10;;;;;;5067574;28;19936;-82
2022/04/12 12:02:01;;;;;;;;;;;18.00;90.60;;;;;;5066498;28;20388;-82
2022/04/12 12:04:29;;;;;;;;;;;18.10;88.90;;;;;;5060463;28;19924;-82
2022/04/12 12:06:56;;;;;;;;;;;18.20;88.00;;;;;;5065122;28;20015;-83
2022/04/12 12:09:22;;;;;;;;;;;18.10;87.20;;;;;;5068522;28;19928;-82
2022/04/12 12:11:49;;;;;;;;;;;18.20;88.60;;;;;;5067447;28;19936;-82
2022/04/12 12:14:15;;;;;;;;;;;18.10;87.60;;;;;;5067871;28;19928;-84
2022/04/12 12:16:42;;;;;;;;;;;18.10;88.20;;;;;;5070568;28;20371;-82
2022/04/12 12:19:14;;;;;;;;;;;18.10;87.60;;;;;;5064971;28;20023;-82
2022/04/12 12:21:41;;;;;;;;;;;18.00;87.20;;;;;;5071915;28;19939;-83
2022/04/12 12:24:07;;;;;;;;;;;18.00;88.40;;;;;;5057957;28;19929;-82
2022/04/12 12:26:34;;;;;;;;;;;17.90;88.40;;;;;;5064599;28;20019;-83
2022/04/12 12:29:00;;;;;;;;;;;17.90;88.20;;;;;;5069861;28;20331;-82
2022/04/12 12:31:27;;;;;;;;;;;17.90;88.40;;;;;;5071670;28;20351;-81
2022/04/12 12:33:53;;;;;;;;;;;18.00;88.80;;;;;;5069071;28;20379;-82
2022/04/12 12:36:20;;;;;;;;;;;17.90;88.90;;;;;;5065881;28;20382;-82
2022/04/12 12:38:46;;;;;;;;;;;18.00;88.80;;;;;;5073192;28;19928;-82
2022/04/12 12:41:13;;;;;;;;;;;18.10;89.70;;;;;;5065653;28;19925;-84
2022/04/12 12:43:40;;;;;;;;;;;18.20;87.60;;;;;;5065728;28;19928;-86
2022/04/12 12:46:06;;;;;;;;;;;18.30;87.20;;;;;;5066613;28;19972;-82
2022/04/12 12:48:33;;;;;;;;;;;18.30;87.60;;;;;;5070628;28;20011;-81
2022/04/12 12:51:00;;;;;;;;;;;18.40;87.90;;;;;;5063641;28;19964;-82
2022/04/12 12:53:26;;;;;;;;;;;18.30;87.10;;;;;;5070851;28;19931;-82
2022/04/12 12:55:53;;;;;;;;;;;18.40;87.10;;;;;;5066246;28;19935;-82
2022/04/12 12:58:19;;;;;;;;;;;18.50;87.10;;;;;;5066159;28;19939;-82
2022/04/12 13:00:46;;;;;;;;;;;18.60;87.70;;;;;;5066185;28;20338;-83
2022/04/12 13:03:13;;;;;;;;;;;18.70;85.40;;;;;;5066800;28;20031;-81
2022/04/12 13:05:41;;;;;;;;;;;18.80;86.20;;;;;;5066418;28;20586;-83
2022/04/12 13:08:07;;;;;;;;;;;18.80;86.60;;;;;;5067802;28;19974;-82
2022/04/12 13:10:35;;;;;;;;;;;18.90;84.60;;;;;;5066299;28;19929;-81
2022/04/12 13:13:02;;;;;;;;;;;19.00;84.80;;;;;;5065574;28;20045;-81
2022/04/12 13:15:28;;;;;;;;;;;19.00;84.60;;;;;;5064448;28;21448;-82
2022/04/12 13:17:55;;;;;;;;;;;19.00;85.50;;;;;;5060548;28;20284;-87
2022/04/12 13:20:21;;;;;;;;;;;19.10;84.20;;;;;;5070916;28;20283;-82
2022/04/12 13:22:48;;;;;;;;;;;19.10;84.60;;;;;;5066609;28;20368;-85
2022/04/12 13:25:17;;;;;;;;;;;19.10;83.30;;;;;;5071168;28;19929;-82
2022/04/12 13:27:44;;;;;;;;;;;19.10;83.80;;;;;;5065773;28;19966;-86
2022/04/12 13:30:11;;;;;;;;;;;19.10;83.40;;;;;;5066508;28;19929;-81
2022/04/12 13:32:38;;;;;;;;;;;19.10;84.00;;;;;;5070852;28;20402;-82
2022/04/12 13:35:05;;;;;;;;;;;19.10;83.10;;;;;;5073666;28;19925;-81
2022/04/12 13:37:31;;;;;;;;;;;19.10;83.60;;;;;;5073334;28;19933;-82
2022/04/12 13:39:58;;;;;;;;;;;19.20;83.70;;;;;;5057946;28;19928;-81
2022/04/12 13:42:24;;;;;;;;;;;19.20;82.40;;;;;;5069018;28;19931;-82
2022/04/12 13:44:53;;;;;;;;;;;19.10;81.40;;;;;;5060726;28;19932;-82
2022/04/12 13:47:19;;;;;;;;;;;19.00;82.50;;;;;;5069383;28;20015;-82
2022/04/12 13:49:46;;;;;;;;;;;19.00;83.20;;;;;;5081184;28;20010;-86
2022/04/12 13:52:12;;;;;;;;;;;19.00;84.10;;;;;;5071116;28;20031;-82
2022/04/12 13:54:39;;;;;;;;;;;19.00;83.60;;;;;;5079048;28;19924;-79
2022/04/12 13:57:06;;;;;;;;;;;19.00;82.20;;;;;;5072712;28;20051;-82
2022/04/12 13:59:32;;;;;;;;;;;19.00;80.70;;;;;;5073089;28;19932;-81
2022/04/12 14:01:59;;;;;;;;;;;18.90;82.60;;;;;;5072979;28;19924;-81
2022/04/12 14:04:26;;;;;;;;;;;18.90;82.70;;;;;;5073877;28;19924;-81
2022/04/12 14:06:52;;;;;;;;;;;18.90;83.30;;;;;;5071002;28;19931;-81
2022/04/12 14:09:19;;;;;;;;;;;18.90;84.50;;;;;;5071295;28;19924;-83
2022/04/12 14:11:47;;;;;;;;;;;18.90;85.50;;;;;;5071147;28;20369;-82
2022/04/12 14:14:14;;;;;;;;;;;19.00;83.00;;;;;;5057562;28;19928;-81
2022/04/12 14:16:41;;;;;;;;;;;19.00;84.20;;;;;;5064470;28;19937;-81
2022/04/12 14:19:08;;;;;;;;;;;19.00;84.20;;;;;;5069362;28;19924;-82
2022/04/12 14:21:35;;;;;;;;;;;19.00;84.70;;;;;;5068837;28;20043;-82